sensor_id;sensor_type;location;lat;lon;timestamp;P1;durP1;ratioP1;P2;durP2;ratioP2
45762;SDS011;37512;52.408;13.356;2023-02-14T11:18:21;26.92;;;14.45;;
45762;SDS011;37512;52.408;13.356;2023-02-14T11:22:28;30.67;;;13.43;;
45762;SDS011;37512;52.408;13.356;2023-02-14T11:26:31;25.45;;;12.85;;
45762;SDS011;37512;52.408;13.356;2023-02-14T11:30:37;28.92;;;13.25;;
45762;SDS011;37512;52.408;13.356;2023-02-14T11:34:45;20.20;;;12.40;;
45762;SDS011;37512;52.408;13.356;2023-02-14T11:38:55;24.58;;;12.70;;
45762;SDS011;37512;52.408;13.356;2023-02-14T11:47:16;30.50;;;13.55;;
45762;SDS011;37512;52.408;13.356;2023-02-14T11:51:34;24.77;;;13.23;;
45762;SDS011;37512;52.408;13.356;2023-02-14T11:55:43;25.75;;;12.73;;
45762;SDS011;37512;52.408;13.356;2023-02-14T11:59:46;26.02;;;13.18;;
45762;SDS011;37512;52.408;13.356;2023-02-14T12:03:51;25.58;;;13.13;;
45762;SDS011;37512;52.408;13.356;2023-02-14T12:07:56;26.13;;;12.45;;
45762;SDS011;37512;52.408;13.356;2023-02-14T12:12:01;26.27;;;13.02;;
45762;SDS011;37512;52.408;13.356;2023-02-14T12:16:18;26.08;;;13.13;;
45762;SDS011;37512;52.408;13.356;2023-02-14T12:20:34;24.08;;;13.50;;
45762;SDS011;37512;52.408;13.356;2023-02-14T12:33:28;24.63;;;13.07;;
45762;SDS011;37512;52.408;13.356;2023-02-14T12:37:36;30.73;;;14.65;;
45762;SDS011;37512;52.408;13.356;2023-02-14T12:54:52;21.55;;;11.07;;
45762;SDS011;37512;52.408;13.356;2023-02-14T12:58:59;23.50;;;11.60;;
45762;SDS011;37512;52.408;13.356;2023-02-14T13:12:27;27.67;;;13.27;;
45762;SDS011;37512;52.408;13.356;2023-02-14T13:16:37;30.90;;;14.57;;
45762;SDS011;37512;52.408;13.356;2023-02-14T13:24:56;27.55;;;13.95;;
45762;SDS011;37512;52.408;13.356;2023-02-14T13:29:05;29.92;;;14.45;;
45762;SDS011;37512;52.408;13.356;2023-02-14T13:33:16;27.10;;;14.02;;
45762;SDS011;37512;52.408;13.356;2023-02-14T13:37:25;24.35;;;12.25;;
45762;SDS011;37512;52.408;13.356;2023-02-14T13:41:28;27.70;;;13.85;;
45762;SDS011;37512;52.408;13.356;2023-02-14T13:49:32;23.40;;;12.43;;
45762;SDS011;37512;52.408;13.356;2023-02-14T13:53:45;26.85;;;13.30;;
45762;SDS011;37512;52.408;13.356;2023-02-14T13:58:02;21.55;;;12.05;;
45762;SDS011;37512;52.408;13.356;2023-02-14T14:02:28;23.02;;;11.48;;
45762;SDS011;37512;52.408;13.356;2023-02-14T14:11:02;26.50;;;13.18;;
45762;SDS011;37512;52.408;13.356;2023-02-14T14:15:14;23.25;;;12.68;;
45762;SDS011;37512;52.408;13.356;2023-02-14T14:23:27;26.67;;;13.68;;
45762;SDS011;37512;52.408;13.356;2023-02-14T14:27:32;24.07;;;11.73;;
45762;SDS011;37512;52.408;13.356;2023-02-14T14:31:46;25.83;;;14.00;;
45762;SDS011;37512;52.408;13.356;2023-02-14T14:35:56;23.10;;;12.43;;
45762;SDS011;37512;52.408;13.356;2023-02-14T14:40:00;27.25;;;13.68;;
45762;SDS011;37512;52.408;13.356;2023-02-14T14:44:03;24.58;;;12.32;;
45762;SDS011;37512;52.408;13.356;2023-02-14T14:48:07;21.92;;;12.20;;
45762;SDS011;37512;52.408;13.356;2023-02-14T14:56:56;19.85;;;10.88;;
45762;SDS011;37512;52.408;13.356;2023-02-14T15:01:01;19.17;;;10.98;;
45762;SDS011;37512;52.408;13.356;2023-02-14T15:05:18;19.77;;;11.98;;
45762;SDS011;37512;52.408;13.356;2023-02-14T15:09:31;25.85;;;10.93;;
45762;SDS011;37512;52.408;13.356;2023-02-14T15:13:37;22.95;;;12.02;;
45762;SDS011;37512;52.408;13.356;2023-02-14T15:17:53;21.98;;;10.65;;
45762;SDS011;37512;52.408;13.356;2023-02-14T15:21:56;22.23;;;11.68;;
45762;SDS011;37512;52.408;13.356;2023-02-14T15:25:57;23.00;;;10.40;;
45762;SDS011;37512;52.408;13.356;2023-02-14T15:30:00;23.30;;;11.55;;
45762;SDS011;37512;52.408;13.356;2023-02-14T15:34:05;23.73;;;12.18;;
45762;SDS011;37512;52.408;13.356;2023-02-14T15:38:08;23.20;;;12.23;;
45762;SDS011;37512;52.408;13.356;2023-02-14T15:42:19;24.13;;;12.27;;
45762;SDS011;37512;52.408;13.356;2023-02-14T15:46:33;26.45;;;13.35;;
45762;SDS011;37512;52.408;13.356;2023-02-14T15:50:46;22.75;;;12.93;;
45762;SDS011;37512;52.408;13.356;2023-02-14T15:54:50;23.17;;;13.95;;
45762;SDS011;37512;52.408;13.356;2023-02-14T15:58:59;26.80;;;13.30;;
45762;SDS011;37512;52.408;13.356;2023-02-14T16:03:03;26.88;;;14.05;;
45762;SDS011;37512;52.408;13.356;2023-02-14T16:07:41;31.58;;;15.75;;
45762;SDS011;37512;52.408;13.356;2023-02-14T16:11:35;26.48;;;14.50;;
45762;SDS011;37512;52.408;13.356;2023-02-14T16:15:39;23.45;;;12.43;;
45762;SDS011;37512;52.408;13.356;2023-02-14T16:19:55;23.65;;;13.35;;
45762;SDS011;37512;52.408;13.356;2023-02-14T16:28:07;22.13;;;11.40;;
45762;SDS011;37512;52.408;13.356;2023-02-14T16:32:10;28.20;;;12.98;;
45762;SDS011;37512;52.408;13.356;2023-02-14T16:36:19;22.55;;;12.70;;
45762;SDS011;37512;52.408;13.356;2023-02-14T16:40:25;28.42;;;14.18;;
45762;SDS011;37512;52.408;13.356;2023-02-14T16:44:29;30.52;;;14.38;;
45762;SDS011;37512;52.408;13.356;2023-02-14T16:48:31;29.30;;;14.98;;
45762;SDS011;37512;52.408;13.356;2023-02-14T16:52:32;28.08;;;14.85;;
45762;SDS011;37512;52.408;13.356;2023-02-14T17:00:38;23.88;;;12.73;;
45762;SDS011;37512;52.408;13.356;2023-02-14T17:04:40;28.15;;;13.40;;
45762;SDS011;37512;52.408;13.356;2023-02-14T17:08:42;26.92;;;13.30;;
45762;SDS011;37512;52.408;13.356;2023-02-14T17:12:44;25.42;;;12.75;;
45762;SDS011;37512;52.408;13.356;2023-02-14T17:16:48;27.73;;;13.73;;
45762;SDS011;37512;52.408;13.356;2023-02-14T17:20:50;28.98;;;14.30;;
45762;SDS011;37512;52.408;13.356;2023-02-14T17:24:52;28.45;;;13.27;;
45762;SDS011;37512;52.408;13.356;2023-02-14T17:28:56;30.77;;;14.32;;
45762;SDS011;37512;52.408;13.356;2023-02-14T17:32:57;26.08;;;14.95;;
45762;SDS011;37512;52.408;13.356;2023-02-14T17:36:59;28.85;;;13.93;;
45762;SDS011;37512;52.408;13.356;2023-02-14T17:41:10;28.48;;;14.75;;
45762;SDS011;37512;52.408;13.356;2023-02-14T17:45:17;29.65;;;14.10;;
45762;SDS011;37512;52.408;13.356;2023-02-14T17:49:18;25.20;;;13.70;;
45762;SDS011;37512;52.408;13.356;2023-02-14T17:53:19;31.55;;;16.15;;
45762;SDS011;37512;52.408;13.356;2023-02-14T17:57:21;28.58;;;14.68;;
45762;SDS011;37512;52.408;13.356;2023-02-14T18:01:23;26.95;;;14.38;;
45762;SDS011;37512;52.408;13.356;2023-02-14T18:05:27;32.10;;;16.00;;
45762;SDS011;37512;52.408;13.356;2023-02-14T18:09:29;29.33;;;16.15;;
45762;SDS011;37512;52.408;13.356;2023-02-14T18:13:30;35.53;;;16.48;;
45762;SDS011;37512;52.408;13.356;2023-02-14T18:17:32;36.00;;;17.80;;
45762;SDS011;37512;52.408;13.356;2023-02-14T18:21:34;29.05;;;15.27;;
45762;SDS011;37512;52.408;13.356;2023-02-14T18:25:39;34.50;;;16.05;;
45762;SDS011;37512;52.408;13.356;2023-02-14T18:29:49;35.35;;;17.60;;
45762;SDS011;37512;52.408;13.356;2023-02-14T18:33:51;32.63;;;16.20;;
45762;SDS011;37512;52.408;13.356;2023-02-14T18:37:52;30.85;;;16.23;;
45762;SDS011;37512;52.408;13.356;2023-02-14T18:41:54;32.03;;;15.75;;
45762;SDS011;37512;52.408;13.356;2023-02-14T18:46:07;35.33;;;17.10;;
45762;SDS011;37512;52.408;13.356;2023-02-14T18:50:10;29.83;;;14.75;;
45762;SDS011;37512;52.408;13.356;2023-02-14T18:54:11;30.83;;;16.05;;
45762;SDS011;37512;52.408;13.356;2023-02-14T18:58:13;31.88;;;16.65;;
45762;SDS011;37512;52.408;13.356;2023-02-14T19:02:14;32.90;;;16.20;;
45762;SDS011;37512;52.408;13.356;2023-02-14T19:06:17;31.67;;;16.88;;
45762;SDS011;37512;52.408;13.356;2023-02-14T19:10:19;32.17;;;16.23;;
45762;SDS011;37512;52.408;13.356;2023-02-14T19:14:20;33.22;;;17.45;;
45762;SDS011;37512;52.408;13.356;2023-02-14T19:18:22;38.67;;;19.08;;
45762;SDS011;37512;52.408;13.356;2023-02-14T19:22:25;31.70;;;17.52;;
45762;SDS011;37512;52.408;13.356;2023-02-14T19:26:28;31.25;;;16.77;;
45762;SDS011;37512;52.408;13.356;2023-02-14T19:34:38;31.77;;;14.77;;
45762;SDS011;37512;52.408;13.356;2023-02-14T19:38:40;33.75;;;15.35;;
45762;SDS011;37512;52.408;13.356;2023-02-14T19:42:43;31.55;;;16.55;;
45762;SDS011;37512;52.408;13.356;2023-02-14T19:46:45;35.17;;;16.48;;
45762;SDS011;37512;52.408;13.356;2023-02-14T19:50:48;31.52;;;15.77;;
45762;SDS011;37512;52.408;13.356;2023-02-14T19:54:50;34.65;;;17.98;;
45762;SDS011;37512;52.408;13.356;2023-02-14T19:58:51;32.08;;;16.63;;
45762;SDS011;37512;52.408;13.356;2023-02-14T20:02:53;34.97;;;16.58;;
45762;SDS011;37512;52.408;13.356;2023-02-14T20:06:55;34.35;;;18.15;;
45762;SDS011;37512;52.408;13.356;2023-02-14T20:10:57;33.67;;;17.92;;
45762;SDS011;37512;52.408;13.356;2023-02-14T20:14:59;32.70;;;17.73;;
45762;SDS011;37512;52.408;13.356;2023-02-14T20:19:05;35.08;;;17.55;;
45762;SDS011;37512;52.408;13.356;2023-02-14T20:23:08;32.65;;;18.17;;
45762;SDS011;37512;52.408;13.356;2023-02-14T20:27:10;34.40;;;18.58;;
45762;SDS011;37512;52.408;13.356;2023-02-14T20:31:13;40.38;;;17.77;;
45762;SDS011;37512;52.408;13.356;2023-02-14T20:35:16;31.00;;;17.13;;
45762;SDS011;37512;52.408;13.356;2023-02-14T20:39:18;36.00;;;17.92;;
45762;SDS011;37512;52.408;13.356;2023-02-14T20:43:24;37.55;;;18.20;;
45762;SDS011;37512;52.408;13.356;2023-02-14T20:47:26;33.47;;;17.17;;
45762;SDS011;37512;52.408;13.356;2023-02-14T20:51:28;32.03;;;17.33;;
45762;SDS011;37512;52.408;13.356;2023-02-14T20:55:30;33.95;;;18.23;;
45762;SDS011;37512;52.408;13.356;2023-02-14T20:59:31;29.92;;;15.27;;
45762;SDS011;37512;52.408;13.356;2023-02-14T21:03:33;34.35;;;17.27;;
45762;SDS011;37512;52.408;13.356;2023-02-14T21:07:36;29.83;;;17.45;;
45762;SDS011;37512;52.408;13.356;2023-02-14T21:11:38;30.30;;;15.30;;
45762;SDS011;37512;52.408;13.356;2023-02-14T21:15:39;26.40;;;14.52;;
45762;SDS011;37512;52.408;13.356;2023-02-14T21:19:41;26.20;;;15.20;;
45762;SDS011;37512;52.408;13.356;2023-02-14T21:23:42;30.02;;;15.50;;
45762;SDS011;37512;52.408;13.356;2023-02-14T21:27:44;32.70;;;16.58;;
45762;SDS011;37512;52.408;13.356;2023-02-14T21:31:46;29.25;;;14.60;;
45762;SDS011;37512;52.408;13.356;2023-02-14T21:35:48;27.67;;;14.40;;
45762;SDS011;37512;52.408;13.356;2023-02-14T21:39:49;27.33;;;15.10;;
45762;SDS011;37512;52.408;13.356;2023-02-14T21:43:51;25.73;;;13.43;;
45762;SDS011;37512;52.408;13.356;2023-02-14T21:47:54;26.77;;;13.95;;
45762;SDS011;37512;52.408;13.356;2023-02-14T21:52:14;25.80;;;13.25;;
45762;SDS011;37512;52.408;13.356;2023-02-14T21:56:16;28.50;;;14.15;;
45762;SDS011;37512;52.408;13.356;2023-02-14T22:00:19;28.20;;;13.32;;
45762;SDS011;37512;52.408;13.356;2023-02-14T22:04:22;23.73;;;13.30;;
45762;SDS011;37512;52.408;13.356;2023-02-14T22:08:24;30.95;;;13.52;;
45762;SDS011;37512;52.408;13.356;2023-02-14T22:12:26;26.00;;;13.93;;
45762;SDS011;37512;52.408;13.356;2023-02-14T22:16:28;26.40;;;14.10;;
45762;SDS011;37512;52.408;13.356;2023-02-14T22:20:30;29.02;;;14.90;;
45762;SDS011;37512;52.408;13.356;2023-02-14T22:24:31;28.33;;;13.98;;
45762;SDS011;37512;52.408;13.356;2023-02-14T22:28:33;27.50;;;14.00;;
45762;SDS011;37512;52.408;13.356;2023-02-14T22:32:34;29.98;;;14.60;;
45762;SDS011;37512;52.408;13.356;2023-02-14T22:36:36;27.52;;;15.43;;
45762;SDS011;37512;52.408;13.356;2023-02-14T22:40:37;30.50;;;15.57;;
45762;SDS011;37512;52.408;13.356;2023-02-14T22:44:39;33.40;;;14.45;;
45762;SDS011;37512;52.408;13.356;2023-02-14T22:48:40;25.25;;;13.50;;
45762;SDS011;37512;52.408;13.356;2023-02-14T22:52:42;31.15;;;16.13;;
45762;SDS011;37512;52.408;13.356;2023-02-14T22:56:44;33.80;;;15.68;;
45762;SDS011;37512;52.408;13.356;2023-02-14T23:00:47;28.50;;;15.02;;
45762;SDS011;37512;52.408;13.356;2023-02-14T23:04:49;30.05;;;14.35;;
45762;SDS011;37512;52.408;13.356;2023-02-14T23:08:51;29.63;;;14.75;;
45762;SDS011;37512;52.408;13.356;2023-02-14T23:12:53;32.80;;;15.77;;
45762;SDS011;37512;52.408;13.356;2023-02-14T23:17:14;29.13;;;14.80;;
45762;SDS011;37512;52.408;13.356;2023-02-14T23:21:16;31.02;;;15.77;;
45762;SDS011;37512;52.408;13.356;2023-02-14T23:25:36;30.30;;;15.63;;
45762;SDS011;37512;52.408;13.356;2023-02-14T23:29:37;33.58;;;15.20;;
45762;SDS011;37512;52.408;13.356;2023-02-14T23:33:38;29.13;;;15.15;;
45762;SDS011;37512;52.408;13.356;2023-02-14T23:37:40;28.67;;;14.65;;
45762;SDS011;37512;52.408;13.356;2023-02-14T23:41:41;31.27;;;14.68;;
45762;SDS011;37512;52.408;13.356;2023-02-14T23:45:52;37.05;;;16.98;;
45762;SDS011;37512;52.408;13.356;2023-02-14T23:49:53;29.88;;;16.25;;
45762;SDS011;37512;52.408;13.356;2023-02-14T23:53:55;29.17;;;13.85;;
45762;SDS011;37512;52.408;13.356;2023-02-14T23:57:56;27.55;;;14.55;;
